createdAt,value
2018-08-31T00:01:13.901Z,98907.08
2018-08-31T00:06:25.074Z,98898.59
2018-08-31T00:09:07.673Z,98894.03
2018-08-31T00:12:19.665Z,98897.24
2018-08-31T00:14:48.201Z,98899.58
2018-08-31T00:17:17.083Z,98904.65
2018-08-31T00:19:45.537Z,98909.36
2018-08-31T00:22:14.033Z,98902.09
2018-08-31T00:24:58.581Z,98900.74
2018-08-31T00:27:39.092Z,98898.88
2018-08-31T00:30:18.774Z,98902.41
2018-08-31T00:33:10.201Z,98894.78
2018-08-31T00:36:05.710Z,98883.98
2018-08-31T00:38:45.495Z,98877.55
2018-08-31T00:42:26.662Z,98877.17
2018-08-31T00:45:58.682Z,98876.21
2018-08-31T00:48:27.114Z,98882.95
2018-08-31T00:50:55.615Z,98875.33
2018-08-31T00:53:24.077Z,98872.80
2018-08-31T00:55:52.565Z,98870.25
2018-08-31T00:58:21.058Z,98865.04
2018-08-31T01:00:49.549Z,98859.13
2018-08-31T01:03:18.026Z,98861.50
2018-08-31T01:05:46.498Z,98846.78
2018-08-31T01:08:14.990Z,98855.03
2018-08-31T01:10:43.439Z,98860.80
2018-08-31T01:13:11.942Z,98857.22
2018-08-31T01:15:40.947Z,98865.83
2018-08-31T01:18:09.420Z,98865.13
2018-08-31T01:20:37.917Z,98863.63
2018-08-31T01:23:06.881Z,98860.42
2018-08-31T01:25:35.305Z,98856.19
2018-08-31T01:28:04.242Z,98862.43
2018-08-31T01:30:32.641Z,98861.77
2018-08-31T01:33:01.109Z,98864.47
2018-08-31T01:35:29.602Z,98859.53
2018-08-31T01:37:58.110Z,98852.41
2018-08-31T01:40:26.557Z,98844.13
2018-08-31T01:42:55.054Z,98836.81
2018-08-31T01:45:23.521Z,98833.07
2018-08-31T01:47:52.013Z,98821.71
2018-08-31T01:50:20.497Z,98813.06
2018-08-31T01:52:49.016Z,98808.03
2018-08-31T01:55:17.505Z,98809.14
2018-08-31T01:57:45.906Z,98810.16
2018-08-31T02:00:14.426Z,98824.11
2018-08-31T02:02:42.829Z,98820.06
2018-08-31T02:05:11.269Z,98826.30
2018-08-31T02:07:41.413Z,98820.20
2018-08-31T02:10:09.892Z,98809.39
2018-08-31T02:12:38.473Z,98810.05
2018-08-31T02:15:07.190Z,98809.20
2018-08-31T02:17:35.614Z,98811.03
2018-08-31T02:20:04.244Z,98801.57
2018-08-31T02:22:32.730Z,98804.91
2018-08-31T02:25:01.169Z,98800.87
2018-08-31T02:27:29.561Z,98810.31
2018-08-31T02:29:58.038Z,98809.61
2018-08-31T02:32:26.498Z,98792.91
2018-08-31T02:34:55.230Z,98785.97
2018-08-31T02:37:23.683Z,98787.63
2018-08-31T02:39:52.162Z,98776.94
2018-08-31T02:42:20.542Z,98767.28
2018-08-31T02:44:49.079Z,98764.09
2018-08-31T02:47:17.473Z,98774.61
2018-08-31T02:49:45.998Z,98777.52
2018-08-31T02:52:14.445Z,98779.30
2018-08-31T02:54:42.930Z,98774.59
2018-08-31T02:57:11.413Z,98760.98
2018-08-31T02:59:40.491Z,98768.25
2018-08-31T03:02:08.885Z,98761.22
2018-08-31T03:04:37.446Z,98747.19
2018-08-31T03:07:05.847Z,98742.89
2018-08-31T03:09:34.261Z,98754.12
2018-08-31T03:12:02.722Z,98755.66
2018-08-31T03:14:31.201Z,98760.23
2018-08-31T03:16:59.699Z,98768.23
2018-08-31T03:19:28.145Z,98783.78
2018-08-31T03:21:56.743Z,98785.64
2018-08-31T03:24:25.251Z,98782.95
2018-08-31T03:26:53.719Z,98790.01
2018-08-31T03:29:22.181Z,98790.20
2018-08-31T03:31:50.677Z,98784.73
2018-08-31T03:34:19.138Z,98785.72
2018-08-31T03:36:47.713Z,98785.72
2018-08-31T03:39:16.093Z,98785.41
2018-08-31T03:41:44.520Z,98791.16
2018-08-31T03:44:12.967Z,98793.98
2018-08-31T03:46:42.410Z,98789.19
2018-08-31T03:49:10.837Z,98794.06
2018-08-31T03:51:40.466Z,98797.79
2018-08-31T03:54:08.992Z,98795.73
2018-08-31T03:56:37.417Z,98795.41
2018-08-31T03:59:05.981Z,98797.73
2018-08-31T04:01:34.413Z,98800.15
2018-08-31T04:04:02.813Z,98792.53
2018-08-31T04:06:31.265Z,98793.09
2018-08-31T04:08:59.717Z,98788.03
2018-08-31T04:11:28.234Z,98792.13
2018-08-31T04:13:56.740Z,98784.42
2018-08-31T04:16:25.192Z,98790.15
2018-08-31T04:18:53.702Z,98786.09
2018-08-31T04:21:22.158Z,98779.99
2018-08-31T04:23:50.622Z,98774.92
2018-08-31T04:26:19.134Z,98776.73
2018-08-31T04:28:47.601Z,98773.02
2018-08-31T04:31:16.169Z,98775.88
2018-08-31T04:33:44.660Z,98776.48
2018-08-31T04:36:13.073Z,98781.36
2018-08-31T04:38:41.774Z,98782.23
2018-08-31T04:41:10.257Z,98785.80
2018-08-31T04:43:38.776Z,98789.05
2018-08-31T04:46:07.293Z,98786.73
2018-08-31T04:48:35.669Z,98782.04
2018-08-31T04:51:04.234Z,98787.72
2018-08-31T04:53:32.665Z,98780.98
2018-08-31T04:56:01.095Z,98781.80
2018-08-31T04:58:29.498Z,98778.96
2018-08-31T05:00:58.994Z,98780.64
2018-08-31T05:03:27.549Z,98780.45
2018-08-31T05:05:56.037Z,98783.53
2018-08-31T05:08:24.454Z,98785.41
2018-08-31T05:10:52.896Z,98784.61
2018-08-31T05:13:21.462Z,98774.47
2018-08-31T05:15:50.121Z,98771.31
2018-08-31T05:18:18.557Z,98773.88
2018-08-31T05:20:47.091Z,98770.85
2018-08-31T05:23:15.523Z,98775.93
2018-08-31T05:25:44.125Z,98778.35
2018-08-31T05:28:12.614Z,98778.81
2018-08-31T05:30:41.914Z,98777.78
2018-08-31T05:33:10.373Z,98775.17
2018-08-31T05:35:39.061Z,98777.50
2018-08-31T05:38:07.570Z,98780.06
2018-08-31T05:40:36.113Z,98779.99
2018-08-31T05:43:04.645Z,98777.42
2018-08-31T05:45:33.097Z,98779.54
2018-08-31T05:48:01.509Z,98787.14
2018-08-31T05:50:29.951Z,98779.70
2018-08-31T05:52:58.486Z,98784.56
2018-08-31T05:55:26.938Z,98788.27
2018-08-31T05:57:55.470Z,98789.23
2018-08-31T06:00:23.961Z,98794.89
2018-08-31T06:02:52.521Z,98793.41
2018-08-31T06:05:20.942Z,98789.51
2018-08-31T06:07:49.442Z,98792.48
2018-08-31T06:10:17.958Z,98790.77
2018-08-31T06:12:46.393Z,98796.33
2018-08-31T06:15:14.858Z,98789.11
2018-08-31T06:17:43.408Z,98796.16
2018-08-31T06:20:12.135Z,98793.16
2018-08-31T06:22:40.779Z,98786.42
2018-08-31T06:25:09.262Z,98785.33
2018-08-31T06:27:37.729Z,98798.09
2018-08-31T06:30:06.590Z,98792.45
2018-08-31T06:32:35.092Z,98786.30
2018-08-31T06:35:03.549Z,98779.88
2018-08-31T06:37:32.006Z,98785.44
2018-08-31T06:40:00.562Z,98791.02
2018-08-31T06:42:29.001Z,98797.90
2018-08-31T06:44:57.755Z,98794.08
2018-08-31T06:47:26.454Z,98796.09
2018-08-31T06:49:54.986Z,98800.36
2018-08-31T06:52:23.526Z,98797.21
2018-08-31T06:54:52.017Z,98779.88
2018-08-31T06:57:20.501Z,98787.72
2018-08-31T06:59:48.999Z,98779.09
2018-08-31T07:02:17.445Z,98777.98
2018-08-31T07:04:45.878Z,98791.71
2018-08-31T07:07:14.297Z,98799.25
2018-08-31T07:09:42.860Z,98797.05
2018-08-31T07:12:11.298Z,98793.59
2018-08-31T07:14:40.033Z,98802.46
2018-08-31T07:17:08.538Z,98804.79
2018-08-31T07:19:37.053Z,98797.16
2018-08-31T07:22:05.529Z,98803.50
2018-08-31T07:24:33.974Z,98808.44
2018-08-31T07:27:02.462Z,98814.81
2018-08-31T07:29:30.973Z,98813.13
2018-08-31T07:31:59.423Z,98809.92
2018-08-31T07:34:28.924Z,98818.66
2018-08-31T07:36:57.429Z,98817.96
2018-08-31T07:39:25.866Z,98821.74
2018-08-31T07:41:54.285Z,98817.48
2018-08-31T07:44:22.753Z,98813.19
2018-08-31T07:46:51.258Z,98810.56
2018-08-31T07:49:19.728Z,98818.03
2018-08-31T07:51:48.298Z,98813.00
2018-08-31T07:54:16.788Z,98813.95
2018-08-31T07:56:45.331Z,98819.20
2018-08-31T07:59:13.916Z,98817.95
2018-08-31T08:01:42.645Z,98831.73
2018-08-31T08:04:11.109Z,98832.94
2018-08-31T08:06:40.282Z,98835.70
2018-08-31T08:09:09.693Z,98829.00
2018-08-31T08:11:38.230Z,98841.87
2018-08-31T08:14:07.282Z,98834.73
2018-08-31T08:16:35.814Z,98845.20
2018-08-31T08:19:04.543Z,98838.34
2018-08-31T08:21:32.997Z,98848.98
2018-08-31T08:24:01.422Z,98846.08
2018-08-31T08:26:29.949Z,98863.63
2018-08-31T08:28:58.441Z,98863.53
2018-08-31T08:31:26.901Z,98870.52
2018-08-31T08:33:55.526Z,98873.56
2018-08-31T08:36:24.248Z,98871.50
2018-08-31T08:38:53.012Z,98869.50
2018-08-31T08:41:21.546Z,98883.00
2018-08-31T08:43:50.077Z,98881.72
2018-08-31T08:46:18.629Z,98884.52
2018-08-31T08:48:47.181Z,98891.08
2018-08-31T08:51:15.577Z,98892.38
2018-08-31T08:53:44.047Z,98894.00
2018-08-31T08:56:12.550Z,98891.77
2018-08-31T08:58:41.340Z,98893.45
2018-08-31T09:01:09.846Z,98889.82
2018-08-31T09:03:38.262Z,98888.36
2018-08-31T09:06:06.769Z,98896.41
2018-08-31T09:08:35.195Z,98895.29
2018-08-31T09:11:03.641Z,98896.41
2018-08-31T09:13:32.077Z,98890.25
2018-08-31T09:16:00.633Z,98894.45
2018-08-31T09:18:29.692Z,98893.11
2018-08-31T09:20:58.538Z,98896.41
2018-08-31T09:23:27.446Z,98894.34
2018-08-31T09:25:58.319Z,98895.87
2018-08-31T09:28:26.755Z,98897.50
2018-08-31T09:30:55.666Z,98900.96
2018-08-31T09:33:24.153Z,98895.09
2018-08-31T09:35:52.706Z,98896.70
2018-08-31T09:38:21.218Z,98893.70
2018-08-31T09:40:49.678Z,98899.62
2018-08-31T09:43:18.194Z,98900.46
2018-08-31T09:45:46.645Z,98908.34
2018-08-31T09:48:15.149Z,98905.27
2018-08-31T09:50:43.605Z,98904.64
2018-08-31T09:53:12.205Z,98909.53
2018-08-31T09:55:40.792Z,98911.05
2018-08-31T09:58:09.266Z,98915.45
2018-08-31T10:00:42.928Z,98911.55
2018-08-31T10:03:16.880Z,98911.70
2018-08-31T10:05:45.355Z,98910.83
2018-08-31T10:08:13.904Z,98905.66
2018-08-31T10:10:42.533Z,98909.50
2018-08-31T10:13:10.930Z,98909.19
2018-08-31T10:15:39.606Z,98904.13
2018-08-31T10:18:08.138Z,98915.27
2018-08-31T10:20:36.831Z,98915.77
2018-08-31T10:23:05.406Z,98925.41
2018-08-31T10:25:33.945Z,98920.93
2018-08-31T10:28:02.468Z,98921.66
2018-08-31T10:30:30.923Z,98922.20
2018-08-31T10:32:59.369Z,98925.23
2018-08-31T10:35:27.870Z,98923.98
2018-08-31T10:37:56.860Z,98925.17
2018-08-31T10:40:25.574Z,98916.75
2018-08-31T10:42:54.133Z,98930.68
2018-08-31T10:45:22.634Z,98929.50
2018-08-31T10:47:51.077Z,98926.63
2018-08-31T10:50:19.591Z,98926.47
2018-08-31T10:52:48.040Z,98936.81
2018-08-31T10:55:16.610Z,98932.72
2018-08-31T10:57:45.131Z,98934.69
2018-08-31T11:00:13.708Z,98941.03
2018-08-31T11:02:42.254Z,98939.88
2018-08-31T11:05:10.802Z,98946.94
2018-08-31T11:07:39.578Z,98944.81
2018-08-31T11:10:08.289Z,98955.75
2018-08-31T11:12:36.751Z,98951.55
2018-08-31T11:15:05.324Z,98952.23
2018-08-31T11:17:33.774Z,98955.14
2018-08-31T11:20:02.378Z,98961.77
2018-08-31T11:22:30.786Z,98960.52
2018-08-31T11:24:59.246Z,98962.33
2018-08-31T11:27:27.737Z,98957.73
2018-08-31T11:29:56.282Z,98959.75
2018-08-31T11:32:24.770Z,98959.25
2018-08-31T11:34:53.368Z,98958.28
2018-08-31T11:37:21.900Z,98959.25
2018-08-31T11:39:50.329Z,98955.16
2018-08-31T11:42:18.794Z,98955.30
2018-08-31T11:44:47.325Z,98951.55
2018-08-31T11:47:15.746Z,98941.19
2018-08-31T11:49:44.450Z,98945.88
2018-08-31T11:52:12.930Z,98943.91
2018-08-31T11:54:41.666Z,98944.03
2018-08-31T11:57:10.154Z,98937.62
2018-08-31T11:59:38.597Z,98943.92
2018-08-31T12:02:07.205Z,98940.20
2018-08-31T12:04:35.550Z,98941.33
2018-08-31T12:07:04.021Z,98948.77
2018-08-31T12:09:32.615Z,98938.77
2018-08-31T12:12:01.031Z,98945.64
2018-08-31T12:14:29.466Z,98947.67
2018-08-31T12:16:57.965Z,98945.20
2018-08-31T12:19:26.365Z,98942.81
2018-08-31T12:21:54.838Z,98947.37
2018-08-31T12:24:23.293Z,98946.87
2018-08-31T12:26:51.721Z,98945.73
2018-08-31T12:29:20.134Z,98952.73
2018-08-31T12:31:48.840Z,98955.42
2018-08-31T12:34:17.357Z,98958.11
2018-08-31T12:36:45.838Z,98951.42
2018-08-31T12:39:14.281Z,98951.69
2018-08-31T12:41:42.777Z,98948.08
2018-08-31T12:44:11.315Z,98947.65
2018-08-31T12:46:39.990Z,98948.78
2018-08-31T12:49:08.978Z,98951.72
2018-08-31T12:51:37.415Z,98955.44
2018-08-31T12:54:06.058Z,98953.84
2018-08-31T12:56:34.550Z,98956.30
2018-08-31T12:59:03.059Z,98951.38
2018-08-31T13:01:31.611Z,98947.84
2018-08-31T13:04:00.014Z,98948.25
2018-08-31T13:06:28.538Z,98945.66
2018-08-31T13:08:57.153Z,98944.92
2018-08-31T13:11:25.558Z,98943.64
2018-08-31T13:13:54.112Z,98943.91
2018-08-31T13:16:22.516Z,98942.63
2018-08-31T13:18:51.045Z,98948.48
2018-08-31T13:21:19.597Z,98955.89
2018-08-31T13:23:48.104Z,98944.64
2018-08-31T13:26:16.541Z,98948.99
2018-08-31T13:28:45.070Z,98944.58
2018-08-31T13:31:13.553Z,98937.54
2018-08-31T13:33:42.242Z,98944.04
2018-08-31T13:36:10.694Z,98940.73
2018-08-31T13:38:39.216Z,98949.32
2018-08-31T13:41:07.718Z,98943.17
2018-08-31T13:43:36.198Z,98952.09
2018-08-31T13:46:04.650Z,98942.14
2018-08-31T13:48:33.165Z,98943.09
2018-08-31T13:51:01.594Z,98948.55
2018-08-31T13:53:30.067Z,98958.55
2018-08-31T13:55:58.606Z,98952.23
2018-08-31T13:58:27.154Z,98953.48
2018-08-31T14:00:55.556Z,98955.84
2018-08-31T14:03:24.007Z,98963.76
2018-08-31T14:05:52.590Z,98959.08
2018-08-31T14:08:21.082Z,98962.80
2018-08-31T14:10:49.521Z,98969.57
2018-08-31T14:13:17.951Z,98972.83
2018-08-31T14:15:46.362Z,98959.59
2018-08-31T14:18:14.774Z,98965.12
2018-08-31T14:20:43.244Z,98968.32
2018-08-31T14:23:11.769Z,98965.22
2018-08-31T14:25:40.286Z,98971.72
2018-08-31T14:28:08.886Z,98975.37
2018-08-31T14:30:37.597Z,98971.44
2018-08-31T14:33:06.077Z,98970.28
2018-08-31T14:35:34.605Z,98967.19
2018-08-31T14:38:03.078Z,98969.44
2018-08-31T14:40:31.526Z,98968.38
2018-08-31T14:43:00.113Z,98965.13
2018-08-31T14:45:28.610Z,98969.24
2018-08-31T14:47:57.149Z,98965.58
2018-08-31T14:50:26.090Z,98962.88
2018-08-31T14:52:55.623Z,98962.77
2018-08-31T14:55:24.102Z,98963.62
2018-08-31T14:57:52.788Z,98966.84
2018-08-31T15:00:21.210Z,98962.70
2018-08-31T15:02:49.702Z,98964.92
2018-08-31T15:05:18.213Z,98969.11
2018-08-31T15:07:48.076Z,98965.32
2018-08-31T15:10:17.012Z,98964.41
2018-08-31T15:12:45.744Z,98973.39
2018-08-31T15:15:14.250Z,98970.87
2018-08-31T15:17:42.729Z,98973.56
2018-08-31T15:20:11.280Z,98963.49
2018-08-31T15:22:40.359Z,98969.07
2018-08-31T15:25:09.027Z,98966.17
2018-08-31T15:27:37.485Z,98963.37
2018-08-31T15:30:08.468Z,98962.90
2018-08-31T15:32:37.373Z,98970.92
2018-08-31T15:35:06.061Z,98963.58
2018-08-31T15:37:35.769Z,98968.06
2018-08-31T15:40:04.560Z,98965.44
2018-08-31T15:42:33.403Z,98973.42
2018-08-31T15:45:02.136Z,98975.06
2018-08-31T15:47:31.361Z,98981.13
2018-08-31T15:50:00.085Z,98983.00
2018-08-31T15:52:28.458Z,98985.47
2018-08-31T15:54:57.005Z,98980.20
2018-08-31T15:57:25.517Z,98981.34
2018-08-31T15:59:54.146Z,98976.03
2018-08-31T16:02:23.038Z,98976.65
2018-08-31T16:04:51.721Z,98979.66
2018-08-31T16:07:20.162Z,98981.94
2018-08-31T16:09:48.915Z,98990.42
2018-08-31T16:12:17.588Z,98995.83
2018-08-31T16:14:45.997Z,98994.27
2018-08-31T16:17:14.745Z,98992.63
2018-08-31T16:19:43.142Z,98992.63
2018-08-31T16:22:12.194Z,98992.02
2018-08-31T16:24:41.474Z,98991.24
2018-08-31T16:27:10.108Z,98995.49
2018-08-31T16:29:38.533Z,99003.48
2018-08-31T16:32:07.182Z,98996.97
2018-08-31T16:34:36.061Z,99002.75
2018-08-31T16:37:05.577Z,98997.91
2018-08-31T16:39:34.056Z,98994.48
2018-08-31T16:42:02.601Z,99002.86
2018-08-31T16:44:31.043Z,98994.89
2018-08-31T16:46:59.797Z,98995.20
2018-08-31T16:49:28.214Z,99008.66
2018-08-31T16:51:56.980Z,99002.27
2018-08-31T16:54:25.426Z,99003.98
2018-08-31T16:56:54.078Z,99008.89
2018-08-31T16:59:22.567Z,99005.06
2018-08-31T17:01:51.143Z,98996.64
2018-08-31T17:04:19.645Z,99004.02
2018-08-31T17:06:48.209Z,99009.33
2018-08-31T17:09:16.799Z,99004.19
2018-08-31T17:11:45.362Z,99004.53
2018-08-31T17:14:13.873Z,99009.70
2018-08-31T17:16:43.444Z,99011.05
2018-08-31T17:19:12.193Z,99006.59
2018-08-31T17:21:41.278Z,99009.86
2018-08-31T17:24:09.880Z,99008.85
2018-08-31T17:26:43.605Z,99006.33
2018-08-31T17:29:17.506Z,99012.33
2018-08-31T17:31:51.716Z,99002.19
2018-08-31T17:34:25.514Z,99009.63
2018-08-31T17:36:59.222Z,99004.16
2018-08-31T17:39:27.707Z,99010.07
2018-08-31T17:41:56.507Z,99008.67
2018-08-31T17:44:25.007Z,99012.14
2018-08-31T17:46:53.671Z,99010.58
2018-08-31T17:49:22.233Z,99014.02
2018-08-31T17:51:50.738Z,99019.56
2018-08-31T17:54:19.217Z,99026.19
2018-08-31T17:56:47.981Z,99030.12
2018-08-31T17:59:16.441Z,99023.97
2018-08-31T18:01:44.871Z,99031.09
2018-08-31T18:04:13.661Z,99033.56
2018-08-31T18:06:43.255Z,99032.50
2018-08-31T18:09:11.740Z,99037.03
2018-08-31T18:11:41.958Z,99036.72
2018-08-31T18:14:10.485Z,99032.61
2018-08-31T18:16:39.516Z,99036.99
2018-08-31T18:19:08.193Z,99044.06
2018-08-31T18:21:36.859Z,99042.38
2018-08-31T18:24:05.363Z,99045.18
2018-08-31T18:26:33.940Z,99044.27
2018-08-31T18:29:02.583Z,99045.95
2018-08-31T18:31:31.093Z,99049.86
2018-08-31T18:33:59.825Z,99047.87
2018-08-31T18:36:28.246Z,99050.78
2018-08-31T18:38:57.024Z,99056.25
2018-08-31T18:41:25.530Z,99063.20
2018-08-31T18:43:54.226Z,99063.92
2018-08-31T18:46:22.748Z,99071.21
2018-08-31T18:48:51.554Z,99072.66
2018-08-31T18:51:19.958Z,99075.69
2018-08-31T18:53:48.461Z,99079.72
2018-08-31T18:56:16.914Z,99083.63
2018-08-31T18:58:45.446Z,99083.75
2018-08-31T19:01:13.988Z,99088.52
2018-08-31T19:03:42.750Z,99085.10
2018-08-31T19:06:11.567Z,99089.76
2018-08-31T19:08:40.356Z,99088.56
2018-08-31T19:11:08.991Z,99088.41
2018-08-31T19:13:37.526Z,99096.48
2018-08-31T19:16:06.073Z,99098.83
2018-08-31T19:18:34.534Z,99102.23
2018-08-31T19:21:02.953Z,99099.77
2018-08-31T19:23:31.430Z,99103.08
2018-08-31T19:26:00.134Z,99105.64
2018-08-31T19:28:28.755Z,99104.92
2018-08-31T19:30:57.417Z,99105.27
2018-08-31T19:33:26.019Z,99116.40
2018-08-31T19:35:54.570Z,99119.09
2018-08-31T19:38:23.082Z,99112.37
2018-08-31T19:40:51.636Z,99115.75
2018-08-31T19:43:20.087Z,99117.47
2018-08-31T19:45:48.569Z,99119.03
2018-08-31T19:48:17.041Z,99119.88
2018-08-31T19:50:45.665Z,99120.95
2018-08-31T19:53:14.226Z,99118.64
2018-08-31T19:55:42.918Z,99116.92
2018-08-31T19:58:11.374Z,99111.81
2018-08-31T20:00:40.311Z,99121.85
2018-08-31T20:03:08.905Z,99115.84
2018-08-31T20:05:37.518Z,99118.81
2018-08-31T20:08:06.097Z,99119.16
2018-08-31T20:10:34.629Z,99113.21
2018-08-31T20:13:03.228Z,99117.87
2018-08-31T20:15:31.778Z,99117.98
2018-08-31T20:18:00.926Z,99122.25
2018-08-31T20:20:29.470Z,99117.75
2018-08-31T20:22:58.118Z,99117.87
2018-08-31T20:25:26.618Z,99127.38
2018-08-31T20:27:55.103Z,99124.72
2018-08-31T20:30:23.618Z,99124.48
2018-08-31T20:32:52.091Z,99128.67
2018-08-31T20:35:20.582Z,99127.05
2018-08-31T20:37:49.065Z,99128.75
2018-08-31T20:40:17.654Z,99123.64
2018-08-31T20:42:46.081Z,99121.73
2018-08-31T20:45:14.669Z,99126.95
2018-08-31T20:47:43.153Z,99131.70
2018-08-31T20:50:11.669Z,99136.47
2018-08-31T20:52:40.675Z,99129.57
2018-08-31T20:55:09.193Z,99135.67
2018-08-31T20:57:37.743Z,99137.92
2018-08-31T21:00:06.983Z,99136.19
2018-08-31T21:02:35.525Z,99138.76
2018-08-31T21:05:04.003Z,99134.84
2018-08-31T21:07:32.618Z,99138.26
2018-08-31T21:10:01.171Z,99136.30
2018-08-31T21:12:29.694Z,99132.98
2018-08-31T21:14:58.306Z,99138.31
2018-08-31T21:17:26.845Z,99130.36
2018-08-31T21:19:55.341Z,99137.09
2018-08-31T21:22:23.888Z,99136.02
2018-08-31T21:24:52.368Z,99137.47
2018-08-31T21:27:20.841Z,99130.36
2018-08-31T21:29:49.279Z,99130.64
2018-08-31T21:32:17.837Z,99126.95
2018-08-31T21:34:46.333Z,99130.02
2018-08-31T21:37:14.925Z,99137.47
2018-08-31T21:39:43.432Z,99136.36
2018-08-31T21:42:12.117Z,99137.69
2018-08-31T21:44:40.608Z,99139.50
2018-08-31T21:47:09.033Z,99131.98
2018-08-31T21:49:37.586Z,99137.71
2018-08-31T21:52:06.245Z,99134.33
2018-08-31T21:54:35.063Z,99135.30
2018-08-31T21:57:04.065Z,99129.30
2018-08-31T21:59:32.633Z,99128.80
2018-08-31T22:02:01.453Z,99127.23
2018-08-31T22:04:30.107Z,99131.04
2018-08-31T22:06:58.629Z,99133.61
2018-08-31T22:09:27.069Z,99128.84
2018-08-31T22:11:55.526Z,99129.84
2018-08-31T22:14:23.977Z,99129.19
2018-08-31T22:16:52.445Z,99125.81
2018-08-31T22:19:20.889Z,99113.34
2018-08-31T22:21:49.468Z,99116.75
2018-08-31T22:24:17.922Z,99113.95
2018-08-31T22:26:46.530Z,99120.06
2018-08-31T22:29:15.954Z,99116.30
2018-08-31T22:31:44.502Z,99121.80
2018-08-31T22:34:13.037Z,99115.58
2018-08-31T22:36:42.594Z,99118.14
2018-08-31T22:39:11.334Z,99122.30
2018-08-31T22:41:40.189Z,99121.95
2018-08-31T22:44:08.665Z,99120.95
2018-08-31T22:46:37.185Z,99113.16
2018-08-31T22:49:05.729Z,99111.05
2018-08-31T22:51:34.329Z,99114.73
2018-08-31T22:54:02.783Z,99112.89
2018-08-31T22:56:31.238Z,99108.13
2018-08-31T22:59:00.317Z,99100.28
2018-08-31T23:01:28.822Z,99103.63
2018-08-31T23:03:57.818Z,99102.58
2018-08-31T23:06:26.286Z,99101.52
2018-08-31T23:08:54.698Z,99094.79
2018-08-31T23:11:23.509Z,99095.34
2018-08-31T23:13:52.289Z,99095.34
2018-08-31T23:16:20.735Z,99095.96
2018-08-31T23:18:49.281Z,99101.06
2018-08-31T23:21:17.689Z,99093.00
2018-08-31T23:23:47.933Z,99091.53
2018-08-31T23:26:16.890Z,99096.41
2018-08-31T23:28:45.432Z,99095.69
2018-08-31T23:31:13.937Z,99100.72
2018-08-31T23:33:42.860Z,99104.03
2018-08-31T23:36:11.355Z,99102.30
2018-08-31T23:38:40.526Z,99106.84
2018-08-31T23:41:09.014Z,99113.71
2018-08-31T23:43:37.557Z,99110.30
2018-08-31T23:46:06.042Z,99105.65
2018-08-31T23:48:34.426Z,99101.34
2018-08-31T23:51:02.885Z,99102.41
2018-08-31T23:53:31.312Z,99088.69
2018-08-31T23:55:59.919Z,99080.00
2018-08-31T23:58:28.377Z,99077.81
